createdAt,value
2023-02-12T00:00:42.549Z,70.79
2023-02-12T00:03:16.853Z,70.72
2023-02-12T00:05:30.300Z,70.56
2023-02-12T00:07:43.384Z,69.68
2023-02-12T00:09:57.430Z,69.81
2023-02-12T00:12:11.689Z,69.92
2023-02-12T00:14:24.978Z,70.40
2023-02-12T00:16:38.326Z,70.64
2023-02-12T00:18:54.487Z,70.75
2023-02-12T00:21:10.049Z,70.67
2023-02-12T00:23:23.458Z,70.40
2023-02-12T00:25:36.696Z,70.40
2023-02-12T00:27:50.012Z,70.53
2023-02-12T00:30:03.178Z,70.59
2023-02-12T00:32:20.648Z,70.71
2023-02-12T00:34:33.943Z,70.92
2023-02-12T00:36:46.928Z,71.17
2023-02-12T00:39:00.567Z,71.09
2023-02-12T00:41:13.661Z,71.26
2023-02-12T00:43:26.725Z,71.28
2023-02-12T00:45:39.810Z,71.36
2023-02-12T00:47:52.646Z,71.27
2023-02-12T00:50:06.102Z,71.22
2023-02-12T00:52:19.478Z,71.18
2023-02-12T00:54:32.638Z,71.17
2023-02-12T00:56:45.454Z,71.21
2023-02-12T00:58:58.449Z,71.38
2023-02-12T01:01:15.682Z,71.36
2023-02-12T01:03:29.082Z,71.33
2023-02-12T01:05:42.380Z,71.34
2023-02-12T01:07:59.461Z,71.54
2023-02-12T01:10:15.320Z,71.68
2023-02-12T01:12:29.371Z,71.72
2023-02-12T01:14:43.262Z,71.58
2023-02-12T01:16:56.722Z,71.66
2023-02-12T01:19:11.152Z,71.67
2023-02-12T01:21:26.408Z,71.78
2023-02-12T01:23:40.573Z,71.72
2023-02-12T01:25:53.798Z,71.94
2023-02-12T01:28:10.830Z,71.86
2023-02-12T01:30:25.546Z,71.85
2023-02-12T01:32:38.762Z,72.09
2023-02-12T01:34:52.023Z,72.07
2023-02-12T01:37:07.634Z,72.26
2023-02-12T01:39:21.016Z,72.41
2023-02-12T01:41:36.633Z,72.44
2023-02-12T01:44:08.733Z,72.47
2023-02-12T01:46:21.612Z,72.48
2023-02-12T01:48:39.551Z,72.75
2023-02-12T01:50:54.371Z,72.90
2023-02-12T01:53:07.932Z,72.98
2023-02-12T01:55:22.703Z,72.92
2023-02-12T01:57:40.227Z,73.17
2023-02-12T01:59:56.607Z,73.15
2023-02-12T02:02:10.008Z,73.09
2023-02-12T02:04:28.497Z,73.22
2023-02-12T02:06:48.084Z,73.28
2023-02-12T02:09:01.324Z,73.34
2023-02-12T02:11:31.523Z,73.38
2023-02-12T02:14:02.576Z,73.62
2023-02-12T02:16:24.150Z,73.69
2023-02-12T02:18:45.526Z,73.66
2023-02-12T02:21:41.869Z,73.75
2023-02-12T02:24:31.018Z,73.64
2023-02-12T02:27:09.621Z,73.60
2023-02-12T02:29:41.082Z,73.70
2023-02-12T02:31:59.842Z,73.70
2023-02-12T02:34:23.189Z,73.69
2023-02-12T02:36:59.212Z,73.52
2023-02-12T02:39:19.388Z,73.50
2023-02-12T02:41:39.368Z,73.41
2023-02-12T02:43:55.530Z,73.53
2023-02-12T02:46:13.896Z,73.68
2023-02-12T02:48:30.754Z,73.52
2023-02-12T02:50:50.098Z,73.56
2023-02-12T02:53:08.169Z,73.53
2023-02-12T02:55:25.769Z,73.53
2023-02-12T02:57:45.054Z,73.45
2023-02-12T03:00:06.428Z,73.82
2023-02-12T03:02:25.019Z,73.75
2023-02-12T03:04:42.576Z,73.76
2023-02-12T03:07:02.877Z,73.96
2023-02-12T03:09:22.449Z,73.87
2023-02-12T03:11:37.366Z,73.86
2023-02-12T03:13:55.699Z,73.82
2023-02-12T03:16:13.022Z,74.02
2023-02-12T03:18:30.118Z,74.25
2023-02-12T03:20:48.049Z,74.35
2023-02-12T03:23:07.522Z,74.47
2023-02-12T03:25:25.611Z,74.56
2023-02-12T03:27:42.082Z,74.60
2023-02-12T03:29:56.120Z,74.76
2023-02-12T03:32:25.001Z,74.77
2023-02-12T03:34:51.301Z,74.71
2023-02-12T03:37:09.522Z,74.75
2023-02-12T03:39:31.943Z,74.64
2023-02-12T03:41:45.922Z,74.79
2023-02-12T03:44:04.305Z,74.90
2023-02-12T03:46:23.293Z,75.04
2023-02-12T03:48:40.243Z,75.14
2023-02-12T03:51:00.452Z,75.14
2023-02-12T03:53:13.782Z,75.44
2023-02-12T03:55:27.283Z,75.39
2023-02-12T03:57:44.965Z,75.54
2023-02-12T03:59:58.449Z,75.69
2023-02-12T04:02:11.857Z,75.81
2023-02-12T04:04:25.240Z,75.79
2023-02-12T04:06:40.065Z,75.79
2023-02-12T04:08:53.729Z,75.89
2023-02-12T04:11:19.911Z,75.94
2023-02-12T04:13:43.394Z,75.94
2023-02-12T04:16:20.320Z,75.99
2023-02-12T04:18:40.514Z,76.13
2023-02-12T04:21:05.114Z,76.37
2023-02-12T04:23:30.273Z,76.52
2023-02-12T04:25:56.119Z,76.57
2023-02-12T04:28:24.883Z,76.55
2023-02-12T04:30:42.052Z,76.58
2023-02-12T04:32:58.978Z,76.78
2023-02-12T04:35:18.701Z,76.77
2023-02-12T04:37:35.358Z,77.00
2023-02-12T04:39:49.662Z,77.26
2023-02-12T04:42:05.663Z,77.39
2023-02-12T04:44:29.150Z,77.52
2023-02-12T04:46:42.350Z,77.76
2023-02-12T04:48:59.592Z,77.92
2023-02-12T04:51:13.490Z,78.18
2023-02-12T04:53:26.714Z,78.46
2023-02-12T04:55:40.554Z,78.68
2023-02-12T04:57:53.891Z,78.77
2023-02-12T05:00:07.732Z,78.79
2023-02-12T05:02:20.835Z,79.15
2023-02-12T05:04:33.978Z,79.15
2023-02-12T05:06:49.290Z,79.25
2023-02-12T05:09:02.462Z,79.60
2023-02-12T05:11:16.078Z,79.72
2023-02-12T05:13:29.921Z,79.85
2023-02-12T05:15:44.476Z,79.95
2023-02-12T05:17:58.950Z,79.82
2023-02-12T05:20:14.056Z,79.78
2023-02-12T05:22:27.925Z,79.84
2023-02-12T05:24:41.691Z,80.19
2023-02-12T05:26:55.371Z,80.22
2023-02-12T05:29:08.896Z,80.39
2023-02-12T05:31:23.684Z,80.42
2023-02-12T05:33:37.518Z,80.65
2023-02-12T05:35:51.226Z,80.71
2023-02-12T05:38:08.131Z,80.87
2023-02-12T05:40:22.051Z,80.95
2023-02-12T05:42:35.730Z,80.99
2023-02-12T05:44:48.673Z,80.87
2023-02-12T05:47:01.638Z,80.77
2023-02-12T05:49:14.611Z,80.69
2023-02-12T05:51:28.890Z,80.29
2023-02-12T05:53:42.426Z,80.28
2023-02-12T05:55:55.701Z,80.07
2023-02-12T05:58:08.757Z,79.81
2023-02-12T06:00:22.958Z,79.73
2023-02-12T06:02:36.687Z,79.80
2023-02-12T06:04:52.928Z,79.99
2023-02-12T06:07:08.408Z,80.18
2023-02-12T06:09:22.267Z,80.69
2023-02-12T06:11:35.606Z,80.67
2023-02-12T06:13:49.308Z,80.64
2023-02-12T06:16:02.620Z,80.80
2023-02-12T06:18:16.573Z,80.69
2023-02-12T06:20:30.810Z,80.66
2023-02-12T06:22:44.258Z,80.47
2023-02-12T06:24:58.395Z,80.55
2023-02-12T06:27:12.145Z,80.68
2023-02-12T06:29:25.469Z,80.59
2023-02-12T06:31:39.896Z,80.73
2023-02-12T06:33:53.460Z,80.77
2023-02-12T06:36:09.579Z,80.85
2023-02-12T06:38:22.685Z,80.84
2023-02-12T06:40:36.374Z,80.99
2023-02-12T06:42:50.423Z,81.00
2023-02-12T06:45:04.565Z,81.01
2023-02-12T06:47:17.761Z,81.01
2023-02-12T06:49:31.552Z,81.15
2023-02-12T06:51:44.639Z,81.07
2023-02-12T06:53:58.747Z,81.04
2023-02-12T06:56:14.262Z,81.01
2023-02-12T06:58:27.628Z,81.10
2023-02-12T07:00:40.945Z,81.02
2023-02-12T07:02:58.580Z,81.15
2023-02-12T07:05:12.664Z,81.59
2023-02-12T07:07:25.755Z,81.72
2023-02-12T07:09:42.651Z,81.68
2023-02-12T07:11:57.662Z,81.84
2023-02-12T07:14:11.011Z,81.70
2023-02-12T07:16:24.320Z,81.89
2023-02-12T07:18:39.652Z,81.74
2023-02-12T07:20:52.534Z,81.56
2023-02-12T07:23:05.961Z,81.60
2023-02-12T07:25:19.451Z,81.25
2023-02-12T07:27:32.193Z,81.14
2023-02-12T07:29:45.482Z,81.02
2023-02-12T07:31:58.763Z,80.84
2023-02-12T07:34:12.662Z,80.96
2023-02-12T07:36:26.433Z,81.21
2023-02-12T07:38:40.957Z,81.53
2023-02-12T07:40:54.102Z,81.67
2023-02-12T07:43:07.102Z,81.83
2023-02-12T07:45:22.521Z,81.97
2023-02-12T07:47:36.884Z,81.97
2023-02-12T07:49:50.135Z,82.08
2023-02-12T07:52:03.112Z,82.11
2023-02-12T07:54:17.721Z,82.09
2023-02-12T07:56:33.717Z,82.09
2023-02-12T07:58:48.190Z,82.11
2023-02-12T08:01:01.225Z,82.06
2023-02-12T08:03:14.112Z,82.15
2023-02-12T08:05:27.142Z,82.28
2023-02-12T08:07:40.042Z,82.15
2023-02-12T08:09:52.975Z,82.33
2023-02-12T08:12:06.097Z,82.50
2023-02-12T08:14:21.338Z,82.36
2023-02-12T08:16:35.149Z,82.19
2023-02-12T08:18:48.074Z,82.27
2023-02-12T08:21:04.344Z,82.28
2023-02-12T08:23:17.608Z,82.33
2023-02-12T08:25:30.681Z,82.50
2023-02-12T08:27:47.844Z,82.58
2023-02-12T08:30:01.099Z,82.53
2023-02-12T08:32:15.476Z,82.61
2023-02-12T08:34:30.244Z,82.37
2023-02-12T08:36:45.857Z,82.47
2023-02-12T08:39:01.080Z,82.36
2023-02-12T08:41:15.783Z,82.39
2023-02-12T08:43:29.155Z,82.62
2023-02-12T08:45:43.091Z,82.25
2023-02-12T08:47:56.394Z,82.02
2023-02-12T08:50:09.772Z,81.99
2023-02-12T08:52:22.997Z,82.09
2023-02-12T08:54:36.804Z,82.30
2023-02-12T08:56:49.786Z,82.41
2023-02-12T08:59:03.257Z,82.27
2023-02-12T09:01:20.516Z,82.29
2023-02-12T09:03:34.157Z,82.33
2023-02-12T09:05:48.206Z,82.39
2023-02-12T09:08:01.996Z,82.36
2023-02-12T09:10:16.886Z,82.45
2023-02-12T09:12:29.884Z,82.48
2023-02-12T09:14:43.067Z,82.33
2023-02-12T09:16:58.480Z,82.38
2023-02-12T09:19:11.795Z,82.53
2023-02-12T09:21:25.164Z,82.43
2023-02-12T09:23:39.589Z,82.48
2023-02-12T09:25:53.218Z,82.43
2023-02-12T09:28:07.012Z,82.56
2023-02-12T09:30:21.427Z,82.57
2023-02-12T09:32:34.570Z,82.53
2023-02-12T09:34:47.747Z,82.57
2023-02-12T09:37:00.664Z,82.60
2023-02-12T09:39:13.993Z,82.50
2023-02-12T09:41:53.868Z,82.65
2023-02-12T09:44:14.978Z,82.63
2023-02-12T09:46:34.176Z,82.77
2023-02-12T09:48:58.034Z,82.82
2023-02-12T09:51:13.579Z,82.86
2023-02-12T09:53:29.417Z,83.09
2023-02-12T09:55:43.409Z,83.11
2023-02-12T09:57:57.809Z,83.02
2023-02-12T10:00:14.241Z,83.18
2023-02-12T10:02:28.133Z,83.21
2023-02-12T10:04:51.693Z,83.29
2023-02-12T10:07:22.683Z,83.57
2023-02-12T10:09:54.754Z,83.91
2023-02-12T10:12:16.114Z,84.11
2023-02-12T10:15:11.827Z,84.12
2023-02-12T10:17:32.354Z,84.04
2023-02-12T10:20:15.455Z,84.00
2023-02-12T10:22:37.544Z,84.32
2023-02-12T10:25:12.516Z,84.57
2023-02-12T10:27:35.833Z,84.61
2023-02-12T10:29:52.824Z,84.51
2023-02-12T10:32:09.906Z,84.50
2023-02-12T10:34:27.025Z,84.40
2023-02-12T10:36:46.107Z,84.58
2023-02-12T10:39:04.590Z,84.96
2023-02-12T10:41:20.265Z,84.99
2023-02-12T10:43:34.101Z,84.83
2023-02-12T10:45:47.908Z,84.99
2023-02-12T10:48:11.788Z,84.92
2023-02-12T10:50:37.187Z,84.82
2023-02-12T10:52:56.188Z,84.64
2023-02-12T10:55:26.339Z,84.36
2023-02-12T10:57:44.757Z,84.06
2023-02-12T11:00:00.381Z,84.13
2023-02-12T11:02:25.651Z,84.22
2023-02-12T11:04:40.788Z,84.46
2023-02-12T11:07:04.777Z,84.47
2023-02-12T11:09:36.242Z,84.60
2023-02-12T11:11:50.362Z,84.52
2023-02-12T11:14:06.489Z,84.39
2023-02-12T11:16:30.076Z,84.25
2023-02-12T11:18:44.165Z,84.24
2023-02-12T11:20:59.428Z,84.00
2023-02-12T11:23:26.587Z,83.98
2023-02-12T11:25:41.539Z,84.21
2023-02-12T11:28:06.148Z,84.21
2023-02-12T11:30:24.679Z,84.06
2023-02-12T11:32:38.163Z,84.02
2023-02-12T11:35:07.366Z,84.01
2023-02-12T11:37:23.849Z,84.00
2023-02-12T11:39:39.811Z,84.14
2023-02-12T11:41:58.390Z,84.03
2023-02-12T11:44:22.158Z,83.94
2023-02-12T11:46:35.274Z,83.95
2023-02-12T11:48:51.580Z,83.88
2023-02-12T11:51:07.542Z,84.11
2023-02-12T11:53:29.079Z,84.03
2023-02-12T11:55:44.739Z,84.14
2023-02-12T11:58:05.334Z,84.37
2023-02-12T12:00:24.504Z,84.29
2023-02-12T12:02:41.331Z,84.48
2023-02-12T12:04:58.209Z,84.75
2023-02-12T12:07:16.989Z,84.83
2023-02-12T12:09:34.005Z,84.98
2023-02-12T12:11:56.970Z,85.11
2023-02-12T12:14:17.198Z,85.26
2023-02-12T12:16:55.140Z,85.03
2023-02-12T12:19:39.690Z,85.09
2023-02-12T12:22:00.528Z,84.93
2023-02-12T12:24:19.487Z,84.86
2023-02-12T12:26:35.568Z,84.76
2023-02-12T12:28:54.923Z,84.88
2023-02-12T12:31:15.665Z,85.07
2023-02-12T12:36:14.799Z,84.83
2023-02-12T12:38:34.078Z,84.70
2023-02-12T12:40:59.608Z,84.62
2023-02-12T12:43:16.014Z,84.79
2023-02-12T12:45:58.557Z,85.00
2023-02-12T12:48:23.118Z,84.96
2023-02-12T12:50:46.590Z,84.99
2023-02-12T12:53:24.855Z,85.18
2023-02-12T12:56:02.638Z,85.05
2023-02-12T12:58:21.145Z,85.14
2023-02-12T13:00:46.845Z,85.26
2023-02-12T13:03:26.773Z,85.17
2023-02-12T13:05:57.129Z,85.12
2023-02-12T13:08:14.504Z,85.18
2023-02-12T13:10:36.531Z,85.14
2023-02-12T13:13:08.989Z,85.09
2023-02-12T13:15:33.582Z,85.15
2023-02-12T13:17:52.505Z,85.08
2023-02-12T13:20:10.205Z,85.21
2023-02-12T13:22:26.470Z,85.51
2023-02-12T13:24:45.182Z,85.54
2023-02-12T13:26:57.713Z,85.53
2023-02-12T13:29:08.482Z,85.68
2023-02-12T13:31:33.154Z,85.69
2023-02-12T13:33:50.868Z,85.81
2023-02-12T13:36:04.124Z,85.75
2023-02-12T13:38:21.087Z,85.80
2023-02-12T13:40:32.933Z,85.85
2023-02-12T13:42:52.904Z,85.74
2023-02-12T13:45:15.743Z,85.65
2023-02-12T13:47:37.159Z,85.40
2023-02-12T13:49:55.103Z,85.31
2023-02-12T13:52:10.151Z,85.22
2023-02-12T13:54:33.424Z,85.14
2023-02-12T13:56:47.251Z,84.91
2023-02-12T13:59:00.767Z,84.92
2023-02-12T14:01:12.938Z,85.00
2023-02-12T14:03:28.302Z,84.93
2023-02-12T14:05:38.692Z,84.92
2023-02-12T14:07:52.448Z,84.80
2023-02-12T14:10:10.924Z,84.83
2023-02-12T14:12:30.961Z,84.62
2023-02-12T14:14:46.264Z,84.63
2023-02-12T14:16:55.998Z,84.38
2023-02-12T14:19:36.045Z,84.40
2023-02-12T14:21:45.919Z,84.45
2023-02-12T14:23:56.118Z,84.64
2023-02-12T14:26:12.839Z,84.67
2023-02-12T14:28:30.300Z,84.79
2023-02-12T14:30:41.458Z,84.85
2023-02-12T14:33:27.949Z,84.92
2023-02-12T14:35:40.336Z,84.81
2023-02-12T14:37:51.415Z,84.88
2023-02-12T14:40:30.921Z,84.90
2023-02-12T14:42:58.842Z,84.89
2023-02-12T14:45:28.991Z,84.98
2023-02-12T14:47:54.899Z,84.81
2023-02-12T14:50:09.127Z,84.86
2023-02-12T14:52:24.578Z,84.83
2023-02-12T14:54:38.652Z,84.85
2023-02-12T14:56:51.297Z,84.82
2023-02-12T14:59:05.627Z,84.74
2023-02-12T15:01:16.187Z,84.68
2023-02-12T15:03:31.230Z,84.64
2023-02-12T15:05:44.051Z,84.59
2023-02-12T15:07:58.784Z,84.76
2023-02-12T15:10:15.340Z,84.68
2023-02-12T15:12:33.220Z,84.74
2023-02-12T15:14:47.666Z,84.80
2023-02-12T15:17:01.516Z,84.76
2023-02-12T15:19:20.641Z,84.71
2023-02-12T15:21:33.315Z,84.62
2023-02-12T15:23:46.406Z,84.60
2023-02-12T15:25:56.855Z,84.67
2023-02-12T15:28:17.514Z,84.50
2023-02-12T15:30:31.278Z,84.49
2023-02-12T15:32:46.628Z,84.51
2023-02-12T15:34:57.161Z,84.35
2023-02-12T15:37:09.607Z,84.46
2023-02-12T15:39:23.606Z,84.44
2023-02-12T15:41:40.054Z,84.65
2023-02-12T15:43:51.608Z,84.67
2023-02-12T15:46:01.328Z,84.65
2023-02-12T15:48:17.951Z,84.57
2023-02-12T15:50:28.930Z,84.68
2023-02-12T15:52:42.180Z,84.69
2023-02-12T15:54:53.612Z,84.56
2023-02-12T15:57:03.758Z,84.52
2023-02-12T15:59:24.994Z,84.44
2023-02-12T16:01:36.772Z,84.44
2023-02-12T16:03:50.948Z,84.53
2023-02-12T16:06:06.778Z,84.39
2023-02-12T16:08:19.347Z,84.43
2023-02-12T16:10:29.367Z,84.54
2023-02-12T16:12:42.241Z,84.50
2023-02-12T16:14:54.839Z,84.54
2023-02-12T16:17:04.837Z,84.50
2023-02-12T16:19:24.366Z,84.49
2023-02-12T16:21:36.609Z,84.48
2023-02-12T16:23:49.299Z,84.55
2023-02-12T16:26:00.798Z,84.70
2023-02-12T16:28:18.393Z,84.77
2023-02-12T16:30:34.548Z,84.93
2023-02-12T16:32:45.921Z,85.18
2023-02-12T16:35:03.149Z,85.23
2023-02-12T16:37:46.946Z,85.14
2023-02-12T16:40:26.554Z,85.13
2023-02-12T16:42:36.834Z,85.11
2023-02-12T16:44:47.001Z,85.09
2023-02-12T16:46:58.298Z,84.95
2023-02-12T16:49:16.188Z,85.00
2023-02-12T16:51:28.627Z,85.02
2023-02-12T16:53:47.781Z,85.23
2023-02-12T16:55:58.470Z,85.30
2023-02-12T16:58:08.531Z,85.22
2023-02-12T17:00:20.851Z,85.30
2023-02-12T17:02:28.580Z,85.49
2023-02-12T17:04:38.620Z,85.50
2023-02-12T17:06:48.260Z,85.56
2023-02-12T17:08:58.337Z,85.60
2023-02-12T17:11:10.725Z,85.77
2023-02-12T17:13:22.732Z,85.79
2023-02-12T17:15:36.461Z,85.85
2023-02-12T17:17:46.065Z,85.91
2023-02-12T17:19:55.867Z,85.70
2023-02-12T17:22:06.552Z,85.65
2023-02-12T17:24:23.249Z,85.68
2023-02-12T17:26:33.333Z,85.75
2023-02-12T17:28:43.233Z,85.73
2023-02-12T17:30:53.803Z,85.63
2023-02-12T17:33:03.882Z,85.69
2023-02-12T17:35:14.282Z,85.64
2023-02-12T17:37:25.851Z,85.57
2023-02-12T17:39:35.673Z,85.56
2023-02-12T17:41:45.790Z,85.72
2023-02-12T17:43:56.707Z,85.84
2023-02-12T17:46:10.015Z,85.78
2023-02-12T17:48:22.826Z,86.03
2023-02-12T17:50:33.061Z,86.01
2023-02-12T17:52:43.436Z,86.13
2023-02-12T17:54:53.323Z,86.19
2023-02-12T17:57:02.981Z,86.69
2023-02-12T17:59:14.087Z,86.97
2023-02-12T18:01:25.564Z,87.18
2023-02-12T18:03:36.040Z,87.37
2023-02-12T18:05:48.922Z,87.20
2023-02-12T18:07:58.972Z,87.38
2023-02-12T18:10:11.508Z,87.27
2023-02-12T18:12:19.336Z,87.31
2023-02-12T18:14:28.968Z,87.37
2023-02-12T18:16:39.102Z,87.61
2023-02-12T18:18:48.970Z,87.65
2023-02-12T18:20:59.469Z,87.70
2023-02-12T18:23:10.141Z,87.58
2023-02-12T18:25:20.922Z,87.55
2023-02-12T18:27:30.820Z,87.58
2023-02-12T18:29:42.233Z,87.36
2023-02-12T18:31:52.691Z,87.26
2023-02-12T18:34:02.635Z,87.34
2023-02-12T18:36:14.631Z,87.00
2023-02-12T18:38:24.991Z,86.90
2023-02-12T18:40:34.983Z,87.03
2023-02-12T18:42:45.564Z,86.86
2023-02-12T18:44:57.862Z,86.75
2023-02-12T18:47:08.130Z,86.44
2023-02-12T18:49:18.751Z,86.41
2023-02-12T18:51:29.874Z,86.35
2023-02-12T18:53:39.692Z,86.47
2023-02-12T18:55:49.612Z,86.20
2023-02-12T18:57:59.673Z,86.42
2023-02-12T19:00:11.744Z,86.50
2023-02-12T19:02:21.471Z,86.28
2023-02-12T19:04:31.839Z,86.04
2023-02-12T19:06:46.012Z,85.69
2023-02-12T19:08:58.059Z,85.77
2023-02-12T19:11:09.598Z,85.81
2023-02-12T19:13:19.554Z,85.65
2023-02-12T19:15:29.766Z,85.69
2023-02-12T19:17:39.759Z,85.96
2023-02-12T19:19:51.407Z,85.53
2023-02-12T19:22:01.318Z,84.46
2023-02-12T19:24:13.376Z,84.69
2023-02-12T19:26:23.622Z,84.72
2023-02-12T19:28:33.586Z,84.50
2023-02-12T19:30:44.033Z,84.32
2023-02-12T19:32:53.877Z,83.74
2023-02-12T19:35:03.837Z,83.41
2023-02-12T19:37:14.472Z,82.83
2023-02-12T19:39:25.760Z,82.90
2023-02-12T19:41:41.363Z,82.36
2023-02-12T19:43:54.752Z,81.96
2023-02-12T19:46:09.099Z,81.90
2023-02-12T19:48:18.875Z,81.75
2023-02-12T19:50:29.004Z,81.33
2023-02-12T19:52:45.505Z,80.52
2023-02-12T19:54:55.433Z,80.41
2023-02-12T19:57:10.070Z,80.81
2023-02-12T19:59:22.115Z,80.86
2023-02-12T20:01:32.806Z,80.77
2023-02-12T20:03:43.225Z,80.52
2023-02-12T20:06:01.169Z,80.71
2023-02-12T20:08:11.064Z,80.19
2023-02-12T20:10:21.587Z,79.98
2023-02-12T20:12:31.823Z,79.57
2023-02-12T20:14:41.543Z,79.72
2023-02-12T20:16:51.845Z,79.69
2023-02-12T20:19:05.333Z,79.35
2023-02-12T20:21:17.052Z,79.74
2023-02-12T20:23:26.877Z,79.59
2023-02-12T20:25:36.904Z,79.20
2023-02-12T20:27:46.665Z,79.27
2023-02-12T20:29:56.719Z,79.30
2023-02-12T20:32:06.592Z,79.66
2023-02-12T20:34:19.165Z,79.10
2023-02-12T20:36:27.188Z,79.03
2023-02-12T20:38:37.015Z,79.32
2023-02-12T20:40:47.015Z,79.09
2023-02-12T20:42:57.103Z,79.25
2023-02-12T20:45:07.391Z,79.23
2023-02-12T20:47:17.567Z,78.96
2023-02-12T20:49:27.963Z,79.04
2023-02-12T20:51:38.369Z,79.52
2023-02-12T20:53:48.846Z,79.46
2023-02-12T20:56:02.421Z,79.35
2023-02-12T20:58:12.274Z,78.74
2023-02-12T21:00:23.540Z,78.60
2023-02-12T21:02:33.645Z,78.99
2023-02-12T21:04:43.524Z,78.67
2023-02-12T21:06:53.525Z,79.24
2023-02-12T21:09:03.538Z,78.74
2023-02-12T21:11:16.158Z,78.73
2023-02-12T21:13:23.556Z,78.95
2023-02-12T21:15:33.952Z,78.48
2023-02-12T21:17:43.818Z,78.33
2023-02-12T21:19:53.466Z,78.10
2023-02-12T21:22:03.964Z,78.04
2023-02-12T21:24:17.170Z,78.19
2023-02-12T21:26:29.330Z,78.11
2023-02-12T21:28:39.527Z,76.90
2023-02-12T21:30:49.458Z,77.53
2023-02-12T21:32:59.412Z,77.25
2023-02-12T21:35:10.162Z,77.06
2023-02-12T21:37:19.702Z,77.47
2023-02-12T21:39:30.672Z,77.73
2023-02-12T21:41:42.480Z,77.85
2023-02-12T21:43:55.060Z,78.05
2023-02-12T21:46:05.735Z,77.56
2023-02-12T21:48:15.400Z,78.21
2023-02-12T21:50:25.529Z,78.20
2023-02-12T21:52:35.459Z,78.02
2023-02-12T21:54:45.789Z,78.32
2023-02-12T21:56:55.547Z,78.66
2023-02-12T21:59:06.061Z,78.93
2023-02-12T22:01:18.110Z,78.95
2023-02-12T22:03:27.859Z,78.88
2023-02-12T22:05:38.969Z,78.94
2023-02-12T22:07:52.877Z,79.00
2023-02-12T22:10:02.827Z,77.90
2023-02-12T22:12:12.625Z,77.91
2023-02-12T22:14:23.460Z,77.56
2023-02-12T22:16:33.770Z,77.54
2023-02-12T22:18:44.156Z,78.01
2023-02-12T22:20:53.995Z,78.16
2023-02-12T22:23:04.738Z,77.86
2023-02-12T22:25:14.910Z,77.95
2023-02-12T22:27:24.669Z,77.80
2023-02-12T22:29:34.414Z,77.71
2023-02-12T22:31:46.028Z,77.29
2023-02-12T22:33:57.503Z,77.73
2023-02-12T22:36:09.683Z,77.66
2023-02-12T22:38:19.725Z,77.56
2023-02-12T22:40:29.604Z,78.36
2023-02-12T22:42:40.220Z,78.91
2023-02-12T22:44:50.331Z,77.74
2023-02-12T22:47:00.369Z,76.99
2023-02-12T22:49:10.380Z,76.90
2023-02-12T22:51:25.186Z,77.64
2023-02-12T22:53:35.410Z,77.67
2023-02-12T22:55:45.393Z,77.36
2023-02-12T22:57:55.288Z,77.53
2023-02-12T23:00:06.959Z,77.62
2023-02-12T23:02:17.398Z,76.71
2023-02-12T23:04:27.278Z,76.01
2023-02-12T23:06:37.283Z,75.70
2023-02-12T23:08:51.237Z,76.20
2023-02-12T23:11:01.797Z,76.60
2023-02-12T23:13:21.285Z,76.94
2023-02-12T23:15:38.389Z,76.51
2023-02-12T23:17:55.257Z,76.72
2023-02-12T23:20:05.756Z,76.03
2023-02-12T23:22:15.563Z,75.53
2023-02-12T23:24:27.942Z,75.90
2023-02-12T23:26:37.864Z,76.00
2023-02-12T23:28:47.806Z,76.00
2023-02-12T23:30:58.020Z,76.41
2023-02-12T23:33:08.840Z,76.10
2023-02-12T23:35:19.338Z,76.06
2023-02-12T23:37:29.073Z,76.40
2023-02-12T23:39:39.574Z,76.40
2023-02-12T23:41:49.749Z,76.56
2023-02-12T23:43:59.567Z,76.44
2023-02-12T23:46:09.999Z,76.03
2023-02-12T23:48:32.459Z,76.20
2023-02-12T23:50:49.432Z,76.32
2023-02-12T23:53:00.160Z,76.63
2023-02-12T23:55:11.038Z,77.06
2023-02-12T23:57:20.891Z,77.09
2023-02-12T23:59:30.716Z,77.27
